Time;durP1;ratioP1;P1;durP2;ratioP2;P2;SDS_P1;SDS_P2;PMS_P1;PMS_P2;Temp;Humidity;BMP_temperature;BMP_pressure;BME280_temperature;BME280_humidity;BME280_pressure;Samples;Min_cycle;Max_cycle;Signal;HPM_P1;HPM_P2
2023/04/02 00:02:28;;;;;;;3.47;1.35;;;3.40;99.90;;;;;;6225583;22;20082;-85
2023/04/02 00:05:17;;;;;;;2.70;1.00;;;3.40;99.90;;;;;;6241741;22;20450;-85
2023/04/02 00:07:47;;;;;;;4.72;1.35;;;3.30;99.90;;;;;;6240860;22;20018;-86
2023/04/02 00:10:52;;;;;;;3.83;1.30;;;3.30;99.90;;;;;;6267389;22;20017;-85
2023/04/02 00:13:30;;;;;;;4.65;1.40;;;3.20;99.90;;;;;;6373624;22;20028;-85
2023/04/02 00:15:57;;;;;;;3.15;1.10;;;3.20;99.90;;;;;;6266104;22;20049;-85
2023/04/02 00:18:24;;;;;;;5.00;1.50;;;3.20;99.90;;;;;;6241455;22;20014;-85
2023/04/02 00:21:11;;;;;;;4.53;1.02;;;3.10;99.90;;;;;;6240840;22;20079;-86
2023/04/02 00:23:40;;;;;;;4.55;1.30;;;3.10;99.90;;;;;;6240411;22;20032;-86
2023/04/02 00:26:41;;;;;;;2.25;0.93;;;3.10;99.90;;;;;;6241052;22;20017;-85
2023/04/02 00:29:10;;;;;;;5.40;1.60;;;3.10;99.90;;;;;;6243052;22;20025;-85
2023/04/02 00:31:41;;;;;;;2.42;1.08;;;3.00;99.90;;;;;;6267516;22;20021;-85
2023/04/02 00:34:10;;;;;;;4.57;1.30;;;3.00;99.90;;;;;;6241224;22;20018;-86
2023/04/02 00:36:37;;;;;;;2.65;1.25;;;3.00;99.90;;;;;;6241397;22;20013;-86
2023/04/02 00:39:12;;;;;;;3.13;1.20;;;3.00;99.90;;;;;;6241290;22;20022;-86
2023/04/02 00:41:38;;;;;;;2.88;1.30;;;3.00;99.90;;;;;;6266131;22;20404;-85
2023/04/02 00:44:04;;;;;;;4.43;1.40;;;2.90;99.90;;;;;;6191261;22;20043;-85
2023/04/02 00:46:48;;;;;;;3.03;1.00;;;2.90;99.90;;;;;;6215061;22;20021;-86
2023/04/02 00:49:38;;;;;;;2.22;0.95;;;2.90;99.90;;;;;;6240818;22;20040;-85
2023/04/02 00:52:08;;;;;;;4.00;1.38;;;2.90;99.90;;;;;;6265874;22;20469;-86
2023/04/02 00:55:14;;;;;;;4.65;1.35;;;2.80;99.90;;;;;;6267073;22;20017;-85
2023/04/02 00:57:44;;;;;;;3.97;1.20;;;2.80;99.90;;;;;;6241494;22;20016;-85
2023/04/02 01:00:26;;;;;;;2.85;1.05;;;2.80;99.90;;;;;;6266274;22;20021;-85
2023/04/02 01:03:16;;;;;;;3.67;1.30;;;2.80;99.90;;;;;;6265799;22;20018;-85
2023/04/02 01:05:45;;;;;;;5.32;1.20;;;2.80;99.90;;;;;;6265900;22;20390;-85
2023/04/02 01:08:53;;;;;;;2.25;0.90;;;2.70;99.90;;;;;;6239177;22;20421;-86
2023/04/02 01:11:46;;;;;;;2.85;1.20;;;2.70;99.90;;;;;;6241590;22;20010;-85
2023/04/02 01:14:31;;;;;;;2.50;1.00;;;2.70;99.90;;;;;;6402227;22;20089;-86
2023/04/02 01:17:14;;;;;;;2.35;1.02;;;2.70;99.90;;;;;;6265868;22;20100;-85
2023/04/02 01:19:57;;;;;;;3.10;0.90;;;2.60;99.90;;;;;;6266133;22;20015;-85
2023/04/02 01:23:07;;;;;;;4.05;0.93;;;2.60;99.90;;;;;;6266072;22;20018;-85
2023/04/02 01:25:47;;;;;;;3.65;0.95;;;2.60;99.90;;;;;;6248186;22;20457;-86
2023/04/02 01:28:26;;;;;;;4.15;1.10;;;2.50;99.90;;;;;;6248145;22;20019;-85
2023/04/02 01:30:55;;;;;;;4.18;1.20;;;2.50;99.90;;;;;;6267344;22;20046;-86
2023/04/02 01:33:23;;;;;;;3.50;1.15;;;2.50;99.90;;;;;;6265930;22;20415;-86
2023/04/02 01:36:18;;;;;;;3.10;1.00;;;2.50;99.90;;;;;;6295365;22;20082;-85
2023/04/02 01:39:19;;;;;;;3.50;1.10;;;2.50;99.90;;;;;;6312216;22;20014;-84
2023/04/02 01:41:48;;;;;;;3.13;0.90;;;2.40;99.90;;;;;;6264164;22;20023;-85
2023/04/02 01:44:23;;;;;;;2.90;1.10;;;2.40;99.90;;;;;;6233588;22;20023;-85
2023/04/02 01:46:49;;;;;;;2.47;0.70;;;2.30;99.90;;;;;;6295348;22;20017;-87
2023/04/02 01:49:18;;;;;;;2.13;0.83;;;2.30;99.90;;;;;;6265832;22;20094;-86
2023/04/02 01:51:50;;;;;;;4.60;1.00;;;2.30;99.90;;;;;;6266900;22;20085;-86
2023/04/02 01:54:16;;;;;;;3.20;1.23;;;2.30;99.90;;;;;;6267042;22;20014;-86
2023/04/02 01:56:44;;;;;;;2.80;0.80;;;2.30;99.90;;;;;;6401851;22;20020;-86
2023/04/02 01:59:11;;;;;;;3.88;1.52;;;2.30;99.90;;;;;;6265674;22;20014;-86
2023/04/02 02:01:52;;;;;;;4.43;0.90;;;2.30;99.90;;;;;;6265333;22;20018;-86
2023/04/02 02:04:18;;;;;;;3.70;0.80;;;2.20;99.90;;;;;;6265993;22;20026;-85
2023/04/02 02:06:45;;;;;;;4.70;0.80;;;2.20;99.90;;;;;;6401659;22;20468;-85
2023/04/02 02:09:24;;;;;;;2.97;1.02;;;2.20;99.90;;;;;;6265608;22;20018;-85
2023/04/02 02:11:51;;;;;;;2.17;0.70;;;2.20;99.90;;;;;;6401766;22;20025;-86
2023/04/02 02:14:19;;;;;;;2.67;0.63;;;2.10;99.90;;;;;;6401661;22;20021;-84
2023/04/02 02:16:46;;;;;;;4.70;1.05;;;2.10;99.90;;;;;;6265590;22;20439;-85
2023/04/02 02:19:22;;;;;;;3.22;0.90;;;2.10;99.90;;;;;;6265663;22;20346;-86
2023/04/02 02:21:55;;;;;;;2.28;0.60;;;2.10;99.90;;;;;;6265723;22;20101;-86
2023/04/02 02:24:29;;;;;;;1.60;0.65;;;2.10;99.90;;;;;;6320014;22;20018;-87
2023/04/02 02:27:27;;;;;;;2.80;0.80;;;2.00;99.90;;;;;;6290012;22;20377;-86
2023/04/02 02:29:59;;;;;;;5.75;1.08;;;2.00;99.90;;;;;;6395209;22;20021;-86
2023/04/02 02:32:28;;;;;;;3.25;0.75;;;1.90;99.90;;;;;;6265691;22;20014;-86
2023/04/02 02:35:41;;;;;;;2.15;0.70;;;1.90;99.90;;;;;;6401476;22;20342;-87
2023/04/02 02:38:48;;;;;;;3.88;0.65;;;1.90;99.90;;;;;;6272978;22;20023;-85
2023/04/02 02:41:26;;;;;;;3.38;0.80;;;1.90;99.90;;;;;;6267528;22;20018;-88
2023/04/02 02:44:04;;;;;;;2.28;0.40;;;1.90;99.90;;;;;;6265651;22;21048;-86
2023/04/02 02:46:32;;;;;;;3.65;0.90;;;1.90;99.90;;;;;;6240369;22;20022;-87
2023/04/02 02:49:00;;;;;;;3.80;0.70;;;1.80;99.90;;;;;;6265402;22;20100;-86
2023/04/02 02:51:42;;;;;;;2.35;0.70;;;1.80;99.90;;;;;;6401325;22;20017;-86
2023/04/02 02:54:08;;;;;;;3.28;0.95;;;1.80;99.90;;;;;;6265368;22;20055;-87
2023/04/02 02:56:39;;;;;;;1.48;0.50;;;1.80;99.90;;;;;;6373286;22;20348;-86
2023/04/02 02:59:07;;;;;;;3.15;0.88;;;1.80;99.90;;;;;;6265574;22;20053;-86
2023/04/02 03:01:32;;;;;;;2.13;0.60;;;1.80;99.90;;;;;;6240613;22;20018;-85
2023/04/02 03:03:59;;;;;;;4.50;0.88;;;1.80;99.90;;;;;;6265765;22;20021;-87
2023/04/02 03:06:25;;;;;;;5.95;1.58;;;1.70;99.90;;;;;;6401349;22;20014;-86
2023/04/02 03:09:21;;;;;;;3.72;0.70;;;1.70;99.90;;;;;;6401135;22;20341;-87
2023/04/02 03:12:25;;;;;;;1.63;0.60;;;1.70;99.90;;;;;;6399718;22;20020;-86
2023/04/02 03:15:13;;;;;;;3.13;0.60;;;1.60;99.90;;;;;;6401655;22;20025;-86
2023/04/02 03:17:43;;;;;;;3.45;0.98;;;1.70;99.90;;;;;;6266613;22;20135;-85
2023/04/02 03:20:26;;;;;;;2.72;0.50;;;1.60;99.90;;;;;;6401406;22;20021;-86
2023/04/02 03:22:57;;;;;;;3.78;0.95;;;1.60;99.90;;;;;;6265482;22;20014;-86
2023/04/02 03:25:31;;;;;;;4.10;0.95;;;1.60;99.90;;;;;;6265731;22;20017;-86
2023/04/02 03:28:10;;;;;;;2.10;0.88;;;1.60;99.90;;;;;;6265644;22;20014;-86
2023/04/02 03:30:55;;;;;;;1.33;0.50;;;1.60;99.90;;;;;;6265558;22;20021;-86
2023/04/02 03:33:33;;;;;;;3.78;0.80;;;1.60;99.90;;;;;;6265948;22;20063;-86
2023/04/02 03:36:11;;;;;;;1.10;0.55;;;1.50;99.90;;;;;;6265744;22;20328;-86
2023/04/02 03:38:45;;;;;;;5.85;1.23;;;1.50;99.90;;;;;;6265761;22;20018;-87
2023/04/02 03:41:20;;;;;;;2.53;0.93;;;1.50;99.90;;;;;;6265260;22;20014;-86
2023/04/02 03:43:49;;;;;;;1.75;0.55;;;1.50;99.90;;;;;;6265512;22;20014;-85
2023/04/02 03:46:22;;;;;;;2.63;0.63;;;1.50;99.90;;;;;;6264929;22;20025;-85
2023/04/02 03:48:57;;;;;;;1.67;0.60;;;1.50;99.90;;;;;;6401092;22;20010;-86
2023/04/02 03:51:32;;;;;;;2.13;0.52;;;1.40;99.90;;;;;;6401076;22;20010;-86
2023/04/02 03:53:58;;;;;;;2.05;0.70;;;1.50;99.90;;;;;;6265190;22;20059;-86
2023/04/02 03:56:30;;;;;;;3.40;0.65;;;1.40;99.90;;;;;;6239801;22;20026;-85
2023/04/02 03:59:27;;;;;;;2.15;0.60;;;1.40;99.90;;;;;;6401813;22;20032;-85
2023/04/02 04:01:59;;;;;;;2.08;0.60;;;1.40;99.90;;;;;;6265709;22;20018;-86
2023/04/02 04:04:27;;;;;;;1.17;0.50;;;1.40;99.90;;;;;;6265781;22;20029;-85
2023/04/02 04:06:56;;;;;;;3.65;0.60;;;1.30;99.90;;;;;;6265699;22;20017;-85
2023/04/02 04:09:24;;;;;;;4.70;0.70;;;1.40;99.90;;;;;;6265398;22;20025;-86
2023/04/02 04:11:53;;;;;;;3.67;0.95;;;1.30;99.90;;;;;;6266579;22;20423;-86
2023/04/02 04:14:34;;;;;;;3.15;0.50;;;1.30;99.90;;;;;;6265463;22;20045;-86
2023/04/02 04:17:15;;;;;;;1.70;0.50;;;1.30;99.90;;;;;;6266497;22;20017;-86
2023/04/02 04:19:50;;;;;;;3.63;0.70;;;1.30;99.90;;;;;;6401566;22;20009;-86
2023/04/02 04:22:29;;;;;;;1.90;0.65;;;1.30;99.90;;;;;;6401776;22;20451;-85
2023/04/02 04:25:04;;;;;;;2.67;0.90;;;1.30;99.90;;;;;;6402405;22;20470;-86
2023/04/02 04:27:47;;;;;;;3.28;0.55;;;1.30;99.90;;;;;;6403413;22;20053;-86
2023/04/02 04:30:33;;;;;;;2.47;0.65;;;1.30;99.90;;;;;;6268037;22;20021;-87
2023/04/02 04:33:09;;;;;;;4.25;0.70;;;1.30;99.90;;;;;;6267033;22;20014;-86
2023/04/02 04:35:45;;;;;;;1.73;0.35;;;1.30;99.90;;;;;;6403314;22;20010;-86
2023/04/02 04:38:16;;;;;;;2.80;0.50;;;1.30;99.90;;;;;;6267132;22;20070;-86
2023/04/02 04:40:52;;;;;;;2.55;0.65;;;1.30;99.90;;;;;;6267144;22;20346;-86
2023/04/02 04:43:31;;;;;;;2.42;1.00;;;1.30;99.90;;;;;;6267137;22;20021;-86
2023/04/02 04:46:04;;;;;;;1.63;0.70;;;1.30;99.90;;;;;;6267198;22;20067;-85
2023/04/02 04:48:56;;;;;;;3.30;0.52;;;1.30;99.90;;;;;;6266915;22;20066;-84
2023/04/02 04:52:16;;;;;;;1.75;0.40;;;1.30;99.90;;;;;;6374166;22;20522;-86
2023/04/02 04:54:44;;;;;;;;;;;1.30;99.90;;;;;;6249728;22;20453;-86
2023/04/02 04:57:26;;;;;;;3.88;0.77;;;1.30;99.90;;;;;;6249367;22;19946;-85
2023/04/02 05:00:08;;;;;;;1.30;0.57;;;1.30;99.90;;;;;;6267927;22;20014;-85
2023/04/02 05:02:45;;;;;;;1.67;0.57;;;1.30;99.90;;;;;;6241931;22;20062;-85
2023/04/02 05:05:20;;;;;;;2.22;0.50;;;1.20;99.90;;;;;;6266913;22;20014;-85
2023/04/02 05:07:54;;;;;;;2.10;0.50;;;1.30;99.90;;;;;;6266864;22;20024;-85
2023/04/02 05:10:39;;;;;;;1.98;0.60;;;1.20;99.90;;;;;;6266646;22;20026;-86
2023/04/02 05:13:42;;;;;;;3.25;0.60;;;1.20;99.90;;;;;;6403027;22;20010;-86
2023/04/02 05:16:23;;;;;;;2.50;0.68;;;1.20;99.90;;;;;;6322948;22;20369;-85
2023/04/02 05:19:22;;;;;;;2.95;1.05;;;1.30;99.90;;;;;;6296317;22;20014;-85
2023/04/02 05:22:02;;;;;;;2.30;0.50;;;1.30;99.90;;;;;;6387800;22;20013;-85
2023/04/02 05:24:55;;;;;;;1.63;0.40;;;1.30;99.90;;;;;;6402793;22;20014;-85
2023/04/02 05:27:38;;;;;;;1.83;0.63;;;1.30;99.90;;;;;;6267861;22;20088;-86
2023/04/02 05:30:28;;;;;;;2.63;0.60;;;1.30;99.90;;;;;;6281552;22;20046;-86
2023/04/02 05:33:06;;;;;;;2.05;0.63;;;1.30;99.90;;;;;;6267160;22;20014;-85
2023/04/02 05:35:36;;;;;;;2.08;0.70;;;1.40;99.90;;;;;;6266362;22;20018;-86
2023/04/02 05:38:03;;;;;;;2.17;0.70;;;1.40;99.90;;;;;;6267257;22;20018;-86
2023/04/02 05:40:43;;;;;;;4.93;0.65;;;1.40;99.90;;;;;;6241263;22;20019;-85
2023/04/02 05:43:14;;;;;;;3.55;0.80;;;1.50;99.90;;;;;;6266098;22;20014;-85
2023/04/02 05:45:43;;;;;;;2.13;0.63;;;1.50;99.90;;;;;;6402541;22;20118;-86
2023/04/02 05:48:29;;;;;;;3.40;0.60;;;1.50;99.90;;;;;;6266698;22;20039;-84
2023/04/02 05:50:57;;;;;;;2.35;0.60;;;1.70;99.90;;;;;;6266341;22;20377;-87
2023/04/02 05:53:46;;;;;;;1.45;0.50;;;1.70;99.90;;;;;;6242352;22;20020;-85
2023/04/02 05:56:25;;;;;;;2.97;1.15;;;1.80;99.90;;;;;;6241140;22;20021;-86
2023/04/02 05:59:03;;;;;;;3.78;0.70;;;1.80;99.90;;;;;;6241173;22;20010;-84
2023/04/02 06:02:06;;;;;;;1.38;0.50;;;1.80;99.90;;;;;;6246435;22;20014;-85
2023/04/02 06:05:13;;;;;;;3.45;0.80;;;1.80;99.90;;;;;;6241552;22;20473;-85
2023/04/02 06:07:39;;;;;;;3.47;0.70;;;1.90;99.90;;;;;;6226771;22;20025;-87
2023/04/02 06:10:11;;;;;;;1.92;0.73;;;1.90;99.90;;;;;;6220470;22;20023;-91
2023/04/02 06:12:44;;;;;;;2.72;0.73;;;2.00;99.90;;;;;;6220491;22;20054;-88
2023/04/02 06:15:22;;;;;;;2.33;0.70;;;2.00;99.90;;;;;;6220316;22;20008;-96
2023/04/02 06:17:58;;;;;;;1.60;0.60;;;2.10;99.90;;;;;;6220281;22;20022;-87
2023/04/02 06:20:24;;;;;;;1.80;0.70;;;2.00;99.90;;;;;;6220750;22;20024;-96
2023/04/02 06:23:16;;;;;;;1.80;0.50;;;2.10;99.90;;;;;;6220323;22;20035;-92
2023/04/02 06:25:50;;;;;;;2.35;0.75;;;2.20;99.90;;;;;;6222710;22;20344;-89
2023/04/02 06:28:45;;;;;;;2.53;0.70;;;2.30;99.90;;;;;;6220325;22;20016;-87
2023/04/02 06:31:26;;;;;;;1.50;0.55;;;2.40;99.90;;;;;;6245500;22;20049;-90
2023/04/02 06:33:53;;;;;;;2.00;0.50;;;2.60;99.90;;;;;;6272665;22;20023;-88
2023/04/02 06:36:20;;;;;;;2.17;0.55;;;2.90;99.90;;;;;;6221183;22;20026;-91
2023/04/02 06:39:01;;;;;;;3.72;0.50;;;3.00;99.90;;;;;;6246792;22;20051;-87
2023/04/02 06:41:27;;;;;;;1.45;0.60;;;3.50;99.90;;;;;;6245752;22;21581;-89
2023/04/02 06:44:01;;;;;;;1.23;0.50;;;3.90;99.90;;;;;;6220136;22;20027;-87
2023/04/02 06:46:47;;;;;;;1.02;0.40;;;4.30;99.90;;;;;;6220415;22;20416;-88
2023/04/02 06:49:27;;;;;;;4.28;0.40;;;4.80;99.90;;;;;;6245275;22;20081;-89
2023/04/02 06:51:54;;;;;;;1.30;0.40;;;5.20;99.90;;;;;;6220083;22;20047;-89
2023/04/02 06:54:20;;;;;;;;;;;5.40;99.90;;;;;;6220084;22;20043;-92
2023/04/02 06:56:49;;;;;;;1.30;0.40;;;5.50;99.90;;;;;;6195027;22;19915;-87
2023/04/02 06:59:16;;;;;;;0.50;0.20;;;5.60;99.90;;;;;;6219936;22;20108;-89
2023/04/02 07:01:45;;;;;;;;;;;5.60;99.90;;;;;;6220399;22;20012;-87
2023/04/02 07:04:11;;;;;;;1.75;0.50;;;5.50;99.90;;;;;;6245082;22;19918;-87
2023/04/02 07:06:36;;;;;;;1.37;0.40;;;5.40;99.90;;;;;;6245465;22;20015;-88
2023/04/02 07:09:04;;;;;;;0.57;0.20;;;5.30;99.90;;;;;;6220014;22;20121;-88
2023/04/02 07:11:29;;;;;;;1.67;0.50;;;5.10;99.90;;;;;;6272390;22;20059;-88
2023/04/02 07:13:55;;;;;;;1.57;0.50;;;5.20;99.90;;;;;;6245434;22;20086;-91
2023/04/02 07:16:24;;;;;;;1.63;0.40;;;5.40;99.90;;;;;;6245592;22;20027;-92
2023/04/02 07:18:51;;;;;;;1.65;0.30;;;5.30;99.90;;;;;;6272429;22;20012;-94
2023/04/02 07:21:16;;;;;;;2.08;0.50;;;5.00;99.90;;;;;;6245546;22;20116;-89
2023/04/02 07:23:42;;;;;;;2.83;0.70;;;4.70;99.90;;;;;;6245310;22;20012;-87
2023/04/02 07:26:17;;;;;;;0.87;0.33;;;4.60;99.90;;;;;;6272416;22;20018;-88
2023/04/02 07:28:43;;;;;;;1.33;0.32;;;4.50;99.90;;;;;;6272249;22;20015;-87
2023/04/02 07:31:16;;;;;;;3.63;0.40;;;4.50;99.90;;;;;;6272588;22;20020;-88
2023/04/02 07:33:43;;;;;;;0.70;0.28;;;4.50;99.90;;;;;;6245303;22;20016;-94
2023/04/02 07:36:22;;;;;;;0.60;0.30;;;4.40;99.90;;;;;;6245923;22;20087;-87
2023/04/02 07:38:49;;;;;;;2.08;0.50;;;4.40;99.90;;;;;;6220028;22;20012;-86
2023/04/02 07:41:15;;;;;;;1.08;0.30;;;4.30;99.90;;;;;;6219689;22;20038;-89
2023/04/02 07:43:42;;;;;;;1.48;0.30;;;4.20;99.90;;;;;;6220008;22;20012;-92
2023/04/02 07:46:09;;;;;;;2.35;0.40;;;4.20;99.90;;;;;;6244365;22;20398;-86
2023/04/02 07:48:35;;;;;;;;;;;4.10;99.90;;;;;;6220288;22;20384;-88
2023/04/02 07:51:03;;;;;;;2.10;0.63;;;4.10;99.90;;;;;;6219657;22;19915;-87
2023/04/02 07:53:34;;;;;;;1.60;0.40;;;4.20;99.90;;;;;;6220212;22;20099;-89
2023/04/02 07:56:15;;;;;;;1.20;0.40;;;4.20;99.90;;;;;;6219642;22;20520;-92
2023/04/02 07:58:41;;;;;;;1.45;0.40;;;4.30;99.90;;;;;;6219419;22;20012;-94
2023/04/02 08:01:34;;;;;;;2.28;0.70;;;4.40;99.90;;;;;;6195972;22;20065;-86
2023/04/02 08:04:01;;;;;;;2.33;0.40;;;4.40;99.90;;;;;;6196749;22;20096;-87
2023/04/02 08:06:27;;;;;;;1.40;0.32;;;4.40;99.90;;;;;;6246053;22;20333;-93
2023/04/02 08:08:53;;;;;;;1.65;0.40;;;4.30;99.90;;;;;;6273128;22;20023;-86
2023/04/02 08:11:33;;;;;;;2.50;0.40;;;4.20;99.90;;;;;;6273428;22;20511;-88
2023/04/02 08:14:24;;;;;;;1.48;0.45;;;4.20;99.90;;;;;;6196346;22;20051;-84
2023/04/02 08:16:54;;;;;;;1.48;0.60;;;4.10;99.90;;;;;;6245357;22;20020;-85
2023/04/02 08:19:21;;;;;;;0.95;0.30;;;4.10;99.90;;;;;;6244674;22;20022;-86
2023/04/02 08:21:50;;;;;;;2.40;0.52;;;4.20;99.90;;;;;;6219460;22;20098;-86
2023/04/02 08:24:19;;;;;;;1.10;0.40;;;4.30;99.90;;;;;;6244944;22;20012;-85
2023/04/02 08:26:46;;;;;;;1.52;0.50;;;4.40;99.90;;;;;;6244891;22;20022;-88
2023/04/02 08:29:12;;;;;;;2.08;0.73;;;4.50;99.90;;;;;;6244736;22;20028;-86
2023/04/02 08:31:38;;;;;;;2.03;0.50;;;4.50;99.90;;;;;;6272060;22;20064;-85
2023/04/02 08:34:03;;;;;;;4.53;0.53;;;4.70;99.90;;;;;;6272055;22;20024;-86
2023/04/02 08:36:33;;;;;;;3.20;0.50;;;4.70;99.90;;;;;;6272022;22;20019;-85
2023/04/02 08:38:59;;;;;;;1.65;0.40;;;4.90;99.90;;;;;;6271847;22;20336;-87
2023/04/02 08:41:26;;;;;;;2.67;0.52;;;5.10;99.90;;;;;;6244518;22;20023;-86
2023/04/02 08:43:52;;;;;;;2.10;0.65;;;5.30;99.90;;;;;;6244415;22;20030;-86
2023/04/02 08:46:33;;;;;;;1.87;0.50;;;5.30;99.90;;;;;;6245481;22;20087;-86
2023/04/02 08:49:03;;;;;;;2.83;0.77;;;5.30;99.90;;;;;;6219052;22;20026;-84
2023/04/02 08:51:35;;;;;;;1.52;0.50;;;5.20;99.90;;;;;;6245439;22;20012;-86
2023/04/02 08:54:27;;;;;;;1.13;0.30;;;5.10;99.90;;;;;;6272621;22;20069;-86
2023/04/02 08:57:17;;;;;;;3.45;0.40;;;5.20;99.90;;;;;;6243313;22;20020;-88
2023/04/02 08:59:44;;;;;;;0.90;0.50;;;5.20;99.90;;;;;;6245675;22;20016;-87
2023/04/02 09:02:29;;;;;;;;;;;5.30;99.90;;;;;;6271349;22;20020;-86
2023/04/02 09:05:01;;;;;;;3.03;0.38;;;5.40;99.90;;;;;;6270604;22;19983;-88
2023/04/02 09:07:27;;;;;;;3.08;0.50;;;5.40;99.90;;;;;;6272703;22;20467;-86
2023/04/02 09:09:53;;;;;;;2.97;0.98;;;5.40;99.90;;;;;;6195437;22;20027;-88
2023/04/02 09:12:26;;;;;;;2.50;0.43;;;5.60;99.90;;;;;;6272817;22;20020;-87
2023/04/02 09:15:12;;;;;;;2.05;0.60;;;5.70;99.90;;;;;;6272415;22;20029;-85
2023/04/02 09:17:39;;;;;;;2.47;0.40;;;5.70;99.90;;;;;;6245491;22;20314;-85
2023/04/02 09:20:21;;;;;;;2.55;0.50;;;5.90;99.90;;;;;;6272354;22;20019;-88
2023/04/02 09:22:57;;;;;;;0.98;0.20;;;6.00;99.90;;;;;;6220409;22;20352;-87
2023/04/02 09:26:12;;;;;;;3.28;0.25;;;6.10;99.90;;;;;;6247348;22;20508;-86
2023/04/02 09:29:14;;;;;;;1.98;0.30;;;6.20;99.90;;;;;;6246803;22;20039;-84
2023/04/02 09:31:50;;;;;;;1.45;0.40;;;6.30;99.90;;;;;;6220787;22;20023;-83
2023/04/02 09:34:31;;;;;;;1.25;0.30;;;6.30;99.90;;;;;;6246377;22;20016;-85
2023/04/02 09:37:18;;;;;;;1.63;0.30;;;6.40;99.90;;;;;;6246171;22;20016;-86
2023/04/02 09:39:46;;;;;;;1.23;0.38;;;6.40;99.90;;;;;;6246434;22;20544;-88
2023/04/02 09:42:33;;;;;;;1.33;0.40;;;6.50;99.90;;;;;;6221321;22;20024;-90
2023/04/02 09:45:22;;;;;;;1.48;0.40;;;6.50;99.90;;;;;;6220842;22;20049;-88
2023/04/02 09:47:54;;;;;;;0.55;0.20;;;6.50;99.90;;;;;;6273723;22;20379;-92
2023/04/02 09:50:20;;;;;;;1.85;0.40;;;6.50;99.90;;;;;;6221255;22;20019;-89
2023/04/02 09:52:47;;;;;;;0.60;0.30;;;6.40;99.90;;;;;;6221446;22;20015;-85
2023/04/02 09:55:21;;;;;;;;;;;6.50;99.90;;;;;;6273971;22;20023;-86
2023/04/02 09:57:48;;;;;;;2.15;0.30;;;6.50;99.90;;;;;;6221759;22;19953;-90
2023/04/02 10:00:25;;;;;;;2.17;0.20;;;6.60;99.90;;;;;;6221537;22;20475;-88
2023/04/02 10:03:13;;;;;;;1.60;0.50;;;6.70;99.90;;;;;;6221585;22;20024;-87
2023/04/02 10:06:35;;;;;;;2.33;0.40;;;6.80;99.90;;;;;;6220943;22;20019;-91
2023/04/02 10:09:32;;;;;;;1.73;0.45;;;6.90;99.90;;;;;;6199431;22;20019;-88
2023/04/02 10:11:59;;;;;;;0.85;0.20;;;7.00;99.90;;;;;;6220219;22;20055;-85
2023/04/02 10:14:36;;;;;;;2.13;0.40;;;7.10;99.90;;;;;;6245314;22;20012;-88
2023/04/02 10:17:16;;;;;;;2.43;0.30;;;7.20;99.90;;;;;;6220611;22;20436;-89
2023/04/02 10:19:49;;;;;;;1.55;0.30;;;7.30;99.90;;;;;;6220836;22;20094;-85
2023/04/02 10:22:18;;;;;;;0.55;0.20;;;7.40;99.90;;;;;;6220197;22;20344;-83
2023/04/02 10:24:45;;;;;;;0.95;0.30;;;7.40;99.90;;;;;;6272999;22;20020;-83
2023/04/02 10:27:40;;;;;;;1.05;0.28;;;7.40;99.90;;;;;;6245626;22;20007;-85
2023/04/02 10:30:34;;;;;;;0.95;0.15;;;7.50;99.90;;;;;;6245412;22;20448;-91
2023/04/02 10:33:14;;;;;;;1.08;0.20;;;7.60;99.90;;;;;;6220370;22;20019;-86
2023/04/02 10:36:01;;;;;;;1.55;0.45;;;7.70;99.90;;;;;;6273179;22;20332;-89
2023/04/02 10:38:27;;;;;;;1.48;0.22;;;7.70;99.90;;;;;;6272683;22;20051;-85
2023/04/02 10:41:18;;;;;;;0.80;0.20;;;7.80;99.90;;;;;;6220316;22;20027;-83
2023/04/02 10:44:24;;;;;;;0.73;0.20;;;7.80;99.90;;;;;;6245768;22;20070;-89
2023/04/02 10:47:17;;;;;;;0.63;0.30;;;7.90;99.90;;;;;;6220594;22;20072;-86
2023/04/02 10:49:53;;;;;;;1.50;0.20;;;7.90;99.90;;;;;;6220192;22;20047;-83
2023/04/02 10:52:34;;;;;;;1.58;0.20;;;8.00;99.90;;;;;;6220567;22;20022;-84
2023/04/02 10:55:16;;;;;;;1.90;0.22;;;8.10;99.90;;;;;;6245630;22;20019;-84
2023/04/02 10:57:44;;;;;;;0.43;0.20;;;8.20;99.90;;;;;;6272651;22;20086;-85
2023/04/02 11:00:11;;;;;;;0.50;0.20;;;8.20;99.90;;;;;;6220476;22;20375;-85
2023/04/02 11:02:58;;;;;;;2.17;0.38;;;8.30;99.90;;;;;;6220623;22;20016;-86
2023/04/02 11:05:35;;;;;;;0.35;0.15;;;8.30;99.90;;;;;;6220731;22;20020;-87
2023/04/02 11:08:24;;;;;;;0.57;0.17;;;8.40;99.90;;;;;;6245160;22;20058;-86
2023/04/02 11:10:54;;;;;;;0.70;0.30;;;8.40;99.90;;;;;;6245105;22;20024;-91
2023/04/02 11:13:29;;;;;;;2.97;0.77;;;8.50;99.90;;;;;;6220386;22;20091;-86
2023/04/02 11:15:55;;;;;;;0.93;0.25;;;8.50;99.90;;;;;;6220212;22;20030;-92
2023/04/02 11:18:27;;;;;;;1.85;0.35;;;8.60;99.90;;;;;;6246492;22;20052;-87
2023/04/02 11:20:59;;;;;;;3.72;0.43;;;8.60;99.90;;;;;;6219488;22;20020;-86
2023/04/02 11:23:34;;;;;;;0.50;0.10;;;8.60;99.90;;;;;;6219434;22;20020;-86
2023/04/02 11:26:26;;;;;;;2.90;0.45;;;8.70;99.90;;;;;;6219810;22;20386;-87
2023/04/02 11:29:01;;;;;;;0.98;0.20;;;8.80;99.90;;;;;;6226051;22;20453;-86
2023/04/02 11:31:27;;;;;;;1.08;0.25;;;8.80;99.90;;;;;;6244832;22;20026;-87
2023/04/02 11:33:53;;;;;;;0.17;0.10;;;8.80;99.90;;;;;;6194871;22;20051;-87
2023/04/02 11:36:53;;;;;;;1.30;0.20;;;8.80;99.90;;;;;;6221109;22;20444;-89
2023/04/02 11:39:52;;;;;;;1.48;0.20;;;9.00;99.90;;;;;;6245936;22;20020;-86
2023/04/02 11:42:18;;;;;;;1.02;0.15;;;9.00;99.90;;;;;;6246293;22;20016;-84
2023/04/02 11:44:44;;;;;;;4.13;0.30;;;9.00;99.90;;;;;;6245961;22;20027;-85
2023/04/02 11:47:25;;;;;;;0.47;0.20;;;9.10;99.90;;;;;;6220791;22;20016;-88
2023/04/02 11:49:54;;;;;;;1.42;0.40;;;9.10;99.90;;;;;;6219722;22;20024;-91
2023/04/02 11:52:44;;;;;;;2.05;0.28;;;9.10;99.90;;;;;;6246891;22;20020;-86
2023/04/02 11:55:23;;;;;;;0.88;0.17;;;9.10;99.90;;;;;;6272901;22;20440;-91
2023/04/02 11:58:19;;;;;;;0.85;0.20;;;9.20;99.90;;;;;;6220459;22;20345;-86
2023/04/02 12:01:17;;;;;;;0.95;0.20;;;9.20;99.90;;;;;;6271070;22;20091;-88
2023/04/02 12:03:59;;;;;;;2.35;0.17;;;9.10;99.90;;;;;;6220886;22;20045;-87
2023/04/02 12:07:16;;;;;;;2.10;0.20;;;9.20;99.90;;;;;;6220997;22;20020;-87
2023/04/02 12:10:04;;;;;;;1.80;0.30;;;9.10;99.90;;;;;;6258619;22;20047;-87
2023/04/02 12:12:37;;;;;;;;;;;9.00;99.90;;;;;;6246075;22;20023;-86
2023/04/02 12:15:27;;;;;;;1.40;0.43;;;9.10;99.90;;;;;;6245634;22;19915;-87
2023/04/02 12:18:13;;;;;;;1.95;0.30;;;9.10;99.90;;;;;;6220226;22;20016;-91
2023/04/02 12:20:39;;;;;;;3.05;0.40;;;9.20;99.90;;;;;;6246360;22;20026;-91
2023/04/02 12:23:05;;;;;;;1.27;0.40;;;9.20;99.90;;;;;;6245994;22;20016;-88
2023/04/02 12:25:38;;;;;;;1.42;0.40;;;9.20;99.90;;;;;;6221221;22;20025;-91
2023/04/02 12:28:10;;;;;;;1.98;0.30;;;9.20;99.90;;;;;;6225732;22;20016;-87
2023/04/02 12:30:37;;;;;;;3.58;0.20;;;9.30;99.90;;;;;;6223879;22;20125;-91
2023/04/02 12:33:21;;;;;;;0.77;0.20;;;9.20;99.90;;;;;;6249326;22;20070;-91
2023/04/02 12:35:54;;;;;;;0.85;0.20;;;9.30;99.90;;;;;;6246057;22;20023;-88
2023/04/02 12:38:22;;;;;;;1.02;0.25;;;9.40;99.90;;;;;;6247313;22;20012;-85
2023/04/02 12:40:56;;;;;;;1.48;0.20;;;9.40;99.90;;;;;;6246918;22;20047;-87
2023/04/02 12:43:23;;;;;;;0.70;0.20;;;9.50;99.90;;;;;;6221772;22;20047;-90
2023/04/02 12:46:00;;;;;;;0.43;0.10;;;9.50;99.90;;;;;;6246870;22;20011;-85
2023/04/02 12:48:26;;;;;;;1.83;0.25;;;9.50;99.90;;;;;;6273794;22;20095;-90
2023/04/02 12:50:52;;;;;;;;;;;9.50;99.90;;;;;;6274057;22;20164;-86
2023/04/02 12:53:35;;;;;;;0.55;0.25;;;9.50;99.90;;;;;;6273713;22;20310;-88
2023/04/02 12:56:03;;;;;;;1.33;0.30;;;9.40;99.90;;;;;;6246335;22;20016;-90
2023/04/02 12:58:31;;;;;;;0.50;0.10;;;9.40;99.90;;;;;;6274077;22;20397;-91
2023/04/02 13:01:18;;;;;;;1.60;0.30;;;9.40;99.90;;;;;;6246963;22;20027;-89
2023/04/02 13:04:22;;;;;;;2.85;0.40;;;9.40;99.90;;;;;;6273798;22;20019;-88
2023/04/02 13:06:57;;;;;;;0.32;0.20;;;9.50;99.90;;;;;;6280269;22;20165;-85
2023/04/02 13:09:35;;;;;;;1.35;0.30;;;9.40;99.90;;;;;;6254167;22;20026;-89
2023/04/02 13:12:02;;;;;;;0.70;0.20;;;9.30;99.90;;;;;;6258922;22;20086;-86
2023/04/02 13:14:28;;;;;;;0.85;0.30;;;9.30;99.90;;;;;;6272447;22;20062;-88
2023/04/02 13:16:55;;;;;;;2.30;0.20;;;9.20;99.90;;;;;;6245471;22;20024;-85
2023/04/02 13:19:28;;;;;;;;;;;9.10;99.90;;;;;;6272896;22;20016;-90
2023/04/02 13:21:55;;;;;;;0.28;0.20;;;9.10;99.90;;;;;;6245510;22;20324;-88
2023/04/02 13:24:24;;;;;;;0.60;0.25;;;9.10;99.90;;;;;;6272668;22;20021;-86
2023/04/02 13:26:55;;;;;;;0.88;0.30;;;9.20;99.90;;;;;;6244724;22;20035;-84
2023/04/02 13:29:34;;;;;;;2.10;0.40;;;9.30;99.90;;;;;;6271573;22;20015;-81
2023/04/02 13:32:06;;;;;;;1.40;0.30;;;9.30;99.90;;;;;;6271541;22;20012;-81
2023/04/02 13:34:32;;;;;;;1.35;0.30;;;9.30;99.90;;;;;;6269692;22;20016;-85
2023/04/02 13:36:58;;;;;;;0.70;0.30;;;9.30;99.90;;;;;;6270331;22;20016;-81
2023/04/02 13:39:24;;;;;;;0.80;0.20;;;9.30;99.90;;;;;;6244740;22;20027;-86
2023/04/02 13:42:01;;;;;;;1.27;0.28;;;9.20;99.90;;;;;;6272326;22;20348;-84
2023/04/02 13:44:32;;;;;;;1.73;0.25;;;9.20;99.90;;;;;;6220073;22;20016;-84
2023/04/02 13:46:58;;;;;;;0.93;0.20;;;9.10;99.90;;;;;;6245239;22;20019;-86
2023/04/02 13:49:25;;;;;;;1.65;0.38;;;9.00;99.90;;;;;;6272209;22;20112;-84
2023/04/02 13:51:53;;;;;;;1.67;0.35;;;9.00;99.90;;;;;;6245025;22;20072;-83